Time;durP1;ratioP1;P1;durP2;ratioP2;P2;SDS_P1;SDS_P2;PMS_P1;PMS_P2;Temp;Humidity;BMP_temperature;BMP_pressure;BME280_temperature;BME280_humidity;BME280_pressure;Samples;Min_cycle;Max_cycle;Signal;HPM_P1;HPM_P2
2023/03/07 00:00:57;;;;;;;25.55;12.02;;;4.60;99.90;;;;;;6202328;23;20014;-78
2023/03/07 00:03:22;;;;;;;22.83;12.13;;;5.00;99.90;;;;;;6227164;23;20019;-79
2023/03/07 00:05:48;;;;;;;26.98;12.57;;;5.10;99.90;;;;;;6201598;23;20198;-79
2023/03/07 00:08:14;;;;;;;25.85;12.15;;;5.50;99.90;;;;;;6177344;23;20062;-77
2023/03/07 00:10:39;;;;;;;24.02;11.23;;;4.70;99.90;;;;;;6201794;23;20016;-79
2023/03/07 00:13:05;;;;;;;24.27;11.38;;;5.20;99.90;;;;;;6192231;23;20039;-77
2023/03/07 00:15:36;;;;;;;21.95;9.65;;;5.10;99.90;;;;;;6171230;23;20393;-77
2023/03/07 00:18:04;;;;;;;22.55;9.93;;;4.80;99.90;;;;;;6196494;23;20008;-78
2023/03/07 00:20:30;;;;;;;16.42;8.70;;;5.00;99.90;;;;;;6195746;23;20017;-79
2023/03/07 00:22:55;;;;;;;18.17;8.73;;;5.10;99.90;;;;;;6171262;23;20191;-79
2023/03/07 00:25:21;;;;;;;18.73;8.93;;;5.20;99.90;;;;;;6171091;23;20035;-78
2023/03/07 00:27:47;;;;;;;19.23;8.88;;;5.20;99.90;;;;;;6170560;23;20012;-77
2023/03/07 00:30:13;;;;;;;12.60;6.97;;;5.30;99.90;;;;;;6171293;23;20034;-79
2023/03/07 00:32:38;;;;;;;14.85;6.85;;;4.80;99.90;;;;;;6170659;23;20024;-77
2023/03/07 00:35:04;;;;;;;14.50;6.05;;;5.10;99.90;;;;;;6170785;23;20009;-77
2023/03/07 00:37:30;;;;;;;14.50;6.00;;;4.70;99.90;;;;;;6195269;23;20175;-78
2023/03/07 00:39:56;;;;;;;9.77;5.07;;;4.90;99.90;;;;;;6147128;23;20062;-76
2023/03/07 00:42:21;;;;;;;11.18;5.47;;;4.70;99.90;;;;;;6146705;23;20008;-76
2023/03/07 00:44:47;;;;;;;10.70;4.78;;;5.10;99.90;;;;;;6195379;23;20016;-76
2023/03/07 00:47:13;;;;;;;11.45;5.43;;;5.10;99.90;;;;;;6171075;23;20365;-76
2023/03/07 00:49:38;;;;;;;12.63;4.60;;;4.70;99.90;;;;;;6170770;23;20017;-76
2023/03/07 00:52:04;;;;;;;9.65;4.90;;;4.60;99.90;;;;;;6145874;23;20067;-75
2023/03/07 00:54:30;;;;;;;10.13;4.05;;;3.70;99.90;;;;;;6147170;23;20023;-75
2023/03/07 00:56:56;;;;;;;6.45;3.65;;;5.10;99.90;;;;;;6171304;23;20009;-75
2023/03/07 00:59:21;;;;;;;9.15;4.28;;;4.90;99.90;;;;;;6195988;23;20027;-76
2023/03/07 01:01:47;;;;;;;11.63;3.90;;;5.10;99.90;;;;;;6171050;23;20009;-75
2023/03/07 01:04:13;;;;;;;9.35;4.15;;;4.70;99.90;;;;;;6195453;23;20054;-76
2023/03/07 01:06:39;;;;;;;7.80;3.22;;;4.70;99.90;;;;;;6145954;23;20009;-77
2023/03/07 01:09:24;;;;;;;8.75;3.42;;;4.70;99.90;;;;;;6171018;23;20071;-77
2023/03/07 01:11:50;;;;;;;11.38;3.63;;;4.80;99.90;;;;;;6170856;23;20330;-77
2023/03/07 01:14:16;;;;;;;11.90;3.40;;;4.80;99.90;;;;;;6194270;23;20031;-77
2023/03/07 01:16:41;;;;;;;9.80;3.20;;;4.90;99.90;;;;;;6200706;23;20075;-77
2023/03/07 01:19:11;;;;;;;10.60;3.45;;;5.40;99.90;;;;;;6175977;23;20008;-76
2023/03/07 01:21:39;;;;;;;9.40;2.88;;;4.90;99.90;;;;;;6225914;23;20091;-77
2023/03/07 01:24:06;;;;;;;10.10;4.05;;;5.40;99.90;;;;;;6226852;23;20019;-78
2023/03/07 01:26:36;;;;;;;10.45;2.63;;;5.40;99.90;;;;;;6252963;23;20012;-78
2023/03/07 01:29:03;;;;;;;11.40;2.45;;;5.40;99.90;;;;;;6175976;23;20058;-78
2023/03/07 01:31:31;;;;;;;12.40;2.13;;;4.90;99.90;;;;;;6225657;23;20086;-79
2023/03/07 01:33:58;;;;;;;11.88;2.22;;;5.20;99.90;;;;;;6201457;23;20012;-79
2023/03/07 01:36:29;;;;;;;9.68;2.28;;;5.40;99.90;;;;;;6175789;23;20008;-77
2023/03/07 01:39:15;;;;;;;9.90;2.67;;;5.80;99.90;;;;;;6225597;23;20043;-77
2023/03/07 01:41:42;;;;;;;7.65;1.98;;;5.40;99.90;;;;;;6225024;23;20068;-77
2023/03/07 01:44:14;;;;;;;11.90;2.17;;;5.50;99.90;;;;;;6175911;23;20520;-78
2023/03/07 01:46:57;;;;;;;10.32;2.10;;;5.30;99.90;;;;;;6200597;23;20325;-77
2023/03/07 01:49:30;;;;;;;9.88;1.85;;;4.80;99.90;;;;;;6200554;23;20065;-77
2023/03/07 01:52:04;;;;;;;11.27;2.28;;;4.90;99.90;;;;;;6200291;23;20090;-76
2023/03/07 01:54:32;;;;;;;12.05;2.05;;;4.80;99.90;;;;;;6225313;23;20495;-76
2023/03/07 01:57:01;;;;;;;8.38;1.70;;;4.70;99.90;;;;;;6225568;23;20360;-76
2023/03/07 01:59:30;;;;;;;10.32;1.98;;;4.70;99.90;;;;;;6226561;23;20014;-78
2023/03/07 02:02:01;;;;;;;6.55;1.58;;;5.10;99.90;;;;;;6225880;23;20016;-77
2023/03/07 02:04:37;;;;;;;9.77;1.30;;;4.60;99.90;;;;;;6201060;23;20012;-76
2023/03/07 02:07:04;;;;;;;5.80;1.33;;;6.40;99.90;;;;;;6226337;23;20068;-76
2023/03/07 02:09:31;;;;;;;13.07;2.22;;;5.20;99.90;;;;;;6225840;23;20012;-77
2023/03/07 02:11:59;;;;;;;11.50;2.38;;;4.50;99.90;;;;;;6199764;23;20020;-76
2023/03/07 02:14:25;;;;;;;11.65;1.77;;;4.50;99.90;;;;;;6175723;23;20035;-75
2023/03/07 02:16:52;;;;;;;10.35;1.77;;;4.70;99.90;;;;;;6200413;23;20198;-76
2023/03/07 02:19:55;;;;;;;12.35;3.10;;;4.30;99.90;;;;;;6224569;23;20012;-76
2023/03/07 02:22:22;;;;;;;7.60;1.80;;;4.30;99.90;;;;;;6200306;23;20179;-75
2023/03/07 02:25:14;;;;;;;5.20;1.70;;;4.20;99.90;;;;;;6175376;23;20031;-76
2023/03/07 02:27:40;;;;;;;8.70;1.55;;;4.20;99.90;;;;;;6225906;23;20310;-77
2023/03/07 02:30:07;;;;;;;6.93;1.88;;;4.00;99.90;;;;;;6201168;23;20217;-75
2023/03/07 02:32:33;;;;;;;6.43;1.40;;;4.30;99.90;;;;;;6200735;23;20018;-76
2023/03/07 02:34:59;;;;;;;8.30;1.70;;;5.50;99.90;;;;;;6176342;23;20447;-76
2023/03/07 02:37:31;;;;;;;10.55;1.90;;;4.90;99.90;;;;;;6227324;23;20011;-76
2023/03/07 02:40:04;;;;;;;10.32;1.40;;;4.10;99.90;;;;;;6202188;23;20058;-77
2023/03/07 02:42:32;;;;;;;6.40;1.40;;;4.20;99.90;;;;;;6201595;23;20214;-77
2023/03/07 02:45:00;;;;;;;10.80;1.65;;;4.20;99.90;;;;;;6201245;23;20041;-76
2023/03/07 02:47:26;;;;;;;9.52;2.53;;;4.20;99.90;;;;;;6225868;23;20012;-76
2023/03/07 02:49:52;;;;;;;4.82;1.48;;;4.30;99.90;;;;;;6226038;23;20062;-76
2023/03/07 02:52:19;;;;;;;12.25;2.10;;;4.90;99.90;;;;;;6177380;23;20012;-76
2023/03/07 02:54:44;;;;;;;15.77;2.17;;;4.10;99.90;;;;;;6202680;23;20325;-75
2023/03/07 02:57:10;;;;;;;10.48;1.60;;;5.20;99.90;;;;;;6178239;23;20008;-76
2023/03/07 02:59:36;;;;;;;14.10;1.73;;;4.00;99.90;;;;;;6202928;23;20183;-76
2023/03/07 03:02:02;;;;;;;7.55;1.52;;;3.90;99.90;;;;;;6202636;23;20329;-76
2023/03/07 03:04:28;;;;;;;10.20;1.77;;;4.50;99.90;;;;;;6202746;23;20020;-76
2023/03/07 03:06:54;;;;;;;8.20;1.52;;;4.60;99.90;;;;;;6202253;23;20254;-76
2023/03/07 03:09:20;;;;;;;5.80;1.85;;;4.80;99.90;;;;;;6202708;23;20152;-77
2023/03/07 03:11:46;;;;;;;8.68;1.70;;;3.70;99.90;;;;;;6201881;23;20018;-76
2023/03/07 03:14:12;;;;;;;8.85;1.98;;;4.40;99.90;;;;;;6176043;23;20051;-76
2023/03/07 03:16:38;;;;;;;5.75;1.35;;;4.60;99.90;;;;;;6225742;23;20203;-77
2023/03/07 03:19:05;;;;;;;7.88;2.15;;;4.20;99.90;;;;;;6200714;23;20015;-76
2023/03/07 03:21:31;;;;;;;6.65;1.40;;;3.70;99.90;;;;;;6201140;23;20008;-78
2023/03/07 03:23:56;;;;;;;6.75;1.30;;;4.50;99.90;;;;;;6175769;23;20031;-77
2023/03/07 03:26:22;;;;;;;12.68;2.20;;;3.90;99.90;;;;;;6175739;23;20020;-77
2023/03/07 03:28:49;;;;;;;9.55;1.20;;;3.70;99.90;;;;;;6200851;23;20336;-77
2023/03/07 03:31:15;;;;;;;8.00;1.38;;;4.70;99.90;;;;;;6201039;23;20012;-77
2023/03/07 03:33:45;;;;;;;8.75;1.30;;;4.70;99.90;;;;;;6226169;23;20020;-77
2023/03/07 03:36:15;;;;;;;14.70;1.30;;;3.90;99.90;;;;;;6200883;23;20020;-77
2023/03/07 03:38:42;;;;;;;7.03;1.38;;;3.70;99.90;;;;;;6226453;23;20004;-77
2023/03/07 03:41:11;;;;;;;9.10;1.45;;;3.60;99.90;;;;;;6225068;23;20016;-77
2023/03/07 03:43:37;;;;;;;9.18;1.90;;;4.00;99.90;;;;;;6225992;23;20012;-78
2023/03/07 03:46:03;;;;;;;7.78;1.67;;;4.10;99.90;;;;;;6175279;23;20019;-77
2023/03/07 03:48:29;;;;;;;8.48;1.40;;;4.40;99.90;;;;;;6200302;23;20315;-78
2023/03/07 03:51:07;;;;;;;4.38;1.00;;;3.60;99.90;;;;;;6225918;23;20007;-77
2023/03/07 03:53:35;;;;;;;7.25;1.40;;;3.70;99.90;;;;;;6200854;23;20471;-77
2023/03/07 03:56:12;;;;;;;6.00;1.42;;;4.20;99.90;;;;;;6225382;23;20267;-78
2023/03/07 03:58:39;;;;;;;3.42;0.98;;;4.20;99.90;;;;;;6226039;23;20187;-76
2023/03/07 04:01:07;;;;;;;5.03;1.00;;;4.10;99.90;;;;;;6200252;23;20215;-77
2023/03/07 04:03:34;;;;;;;5.90;1.00;;;3.50;99.90;;;;;;6225325;23;20053;-77
2023/03/07 04:06:02;;;;;;;9.55;1.40;;;3.50;99.90;;;;;;6199001;23;20534;-75
2023/03/07 04:08:27;;;;;;;9.35;1.27;;;4.00;99.90;;;;;;6225661;23;20066;-76
2023/03/07 04:10:53;;;;;;;8.30;1.38;;;4.10;99.90;;;;;;6225167;23;20012;-75
2023/03/07 04:13:19;;;;;;;7.97;1.65;;;4.00;99.90;;;;;;6199651;23;20039;-76
2023/03/07 04:15:44;;;;;;;5.10;1.00;;;4.00;99.90;;;;;;6225154;23;20074;-77
2023/03/07 04:18:10;;;;;;;7.22;1.20;;;3.90;99.90;;;;;;6150380;23;20043;-76
2023/03/07 04:20:36;;;;;;;6.78;1.50;;;3.40;99.90;;;;;;6225406;23;20012;-75
2023/03/07 04:23:02;;;;;;;4.47;1.05;;;3.60;99.90;;;;;;6175581;23;20020;-76
2023/03/07 04:25:27;;;;;;;7.25;1.40;;;3.80;99.90;;;;;;6175715;23;20020;-77
2023/03/07 04:27:53;;;;;;;8.07;1.42;;;3.90;99.90;;;;;;6175672;23;20020;-76
2023/03/07 04:30:19;;;;;;;7.78;1.23;;;3.90;99.90;;;;;;6200704;23;20012;-75
2023/03/07 04:32:48;;;;;;;5.45;1.08;;;3.90;99.90;;;;;;6252474;23;20188;-75
2023/03/07 04:35:13;;;;;;;7.28;1.17;;;3.70;99.90;;;;;;6199726;23;20016;-75
2023/03/07 04:37:39;;;;;;;7.55;2.10;;;4.40;99.90;;;;;;6200422;23;20019;-76
2023/03/07 04:40:05;;;;;;;5.20;0.95;;;3.80;99.90;;;;;;6199710;23;20050;-75
2023/03/07 04:42:31;;;;;;;9.65;1.33;;;3.30;99.90;;;;;;6175557;23;20301;-75
2023/03/07 04:44:57;;;;;;;7.65;1.23;;;3.30;99.90;;;;;;6174480;23;20020;-75
2023/03/07 04:47:22;;;;;;;3.42;1.35;;;3.30;99.90;;;;;;6199905;23;20548;-75
2023/03/07 04:49:48;;;;;;;8.32;1.30;;;4.20;99.90;;;;;;6199605;23;20012;-76
2023/03/07 04:52:14;;;;;;;7.20;1.20;;;3.30;99.90;;;;;;6200134;23;20099;-75
2023/03/07 04:54:39;;;;;;;5.75;1.38;;;3.70;99.90;;;;;;6150804;23;20020;-76
2023/03/07 04:57:05;;;;;;;4.75;1.55;;;3.60;99.90;;;;;;6199294;23;20314;-75
2023/03/07 04:59:31;;;;;;;9.77;1.17;;;3.30;99.90;;;;;;6199922;23;20030;-75
2023/03/07 05:01:56;;;;;;;7.57;1.23;;;3.20;99.90;;;;;;6174337;23;20026;-76
2023/03/07 05:04:22;;;;;;;4.60;1.50;;;4.00;99.90;;;;;;6175462;23;20012;-75
2023/03/07 05:06:48;;;;;;;8.60;1.60;;;3.90;99.90;;;;;;6199843;23;20035;-76
2023/03/07 05:09:14;;;;;;;6.63;1.77;;;3.60;99.90;;;;;;6198885;23;20275;-76
2023/03/07 05:11:39;;;;;;;8.30;1.38;;;3.70;99.90;;;;;;6224567;23;20016;-75
2023/03/07 05:14:05;;;;;;;8.07;1.40;;;4.10;99.90;;;;;;6149233;23;20020;-77
2023/03/07 05:16:32;;;;;;;6.28;1.27;;;3.50;99.90;;;;;;6200600;23;20077;-77
2023/03/07 05:18:59;;;;;;;8.90;1.60;;;3.60;99.90;;;;;;6175315;23;20110;-78
2023/03/07 05:21:25;;;;;;;6.85;1.25;;;3.60;99.90;;;;;;6151764;23;20008;-76
2023/03/07 05:23:50;;;;;;;5.65;1.38;;;3.70;99.90;;;;;;6199659;23;20035;-77
2023/03/07 05:26:16;;;;;;;7.47;2.28;;;4.10;99.90;;;;;;6224623;23;20047;-76
2023/03/07 05:28:42;;;;;;;6.65;1.05;;;4.50;99.90;;;;;;6200317;23;20019;-79
2023/03/07 05:31:07;;;;;;;6.53;1.23;;;4.00;99.90;;;;;;6199931;23;20019;-76
2023/03/07 05:33:33;;;;;;;4.90;1.10;;;3.90;99.90;;;;;;6224429;23;20020;-77
2023/03/07 05:36:00;;;;;;;7.78;1.42;;;3.90;99.90;;;;;;6199995;23;20014;-75
2023/03/07 05:38:26;;;;;;;11.38;1.23;;;4.30;99.90;;;;;;6199653;23;20038;-76
2023/03/07 05:40:51;;;;;;;10.90;1.30;;;3.40;99.90;;;;;;6224777;23;20443;-77
2023/03/07 05:43:17;;;;;;;7.88;1.40;;;3.60;99.90;;;;;;6224517;23;20008;-76
2023/03/07 05:45:43;;;;;;;5.40;1.23;;;4.00;99.90;;;;;;6174696;23;20016;-77
2023/03/07 05:48:09;;;;;;;7.18;1.55;;;4.40;99.90;;;;;;6200130;23;20071;-79
2023/03/07 05:50:37;;;;;;;6.18;1.42;;;4.00;99.90;;;;;;6199913;23;20052;-75
2023/03/07 05:53:03;;;;;;;7.82;1.48;;;3.60;99.90;;;;;;6199849;23;20501;-74
2023/03/07 05:55:29;;;;;;;4.75;1.15;;;4.10;99.90;;;;;;6174753;23;20024;-75
2023/03/07 05:57:55;;;;;;;4.22;1.10;;;3.80;99.90;;;;;;6199856;23;20067;-75
2023/03/07 06:00:21;;;;;;;2.50;0.80;;;3.90;99.90;;;;;;6198883;23;20008;-76
2023/03/07 06:02:47;;;;;;;9.70;1.15;;;3.50;99.90;;;;;;6174417;23;20020;-76
2023/03/07 06:05:13;;;;;;;4.22;1.40;;;3.90;99.90;;;;;;6199015;23;20038;-76
2023/03/07 06:07:38;;;;;;;3.88;1.08;;;4.00;99.90;;;;;;6224716;23;20040;-75
2023/03/07 06:10:05;;;;;;;3.60;1.02;;;3.80;99.90;;;;;;6198847;23;20012;-75
2023/03/07 06:12:31;;;;;;;6.05;1.15;;;4.00;99.90;;;;;;6199075;23;20012;-76
2023/03/07 06:14:57;;;;;;;3.53;1.13;;;3.60;99.90;;;;;;6174290;23;20069;-75
2023/03/07 06:17:22;;;;;;;1.67;0.50;;;4.10;99.90;;;;;;6198242;23;20027;-75
2023/03/07 06:19:48;;;;;;;6.72;1.23;;;3.70;99.90;;;;;;6199364;23;20144;-75
2023/03/07 06:22:14;;;;;;;7.70;0.98;;;4.20;99.90;;;;;;6198082;23;20008;-75
2023/03/07 06:24:39;;;;;;;5.70;1.00;;;3.60;99.90;;;;;;6198544;23;20106;-74
2023/03/07 06:27:05;;;;;;;3.58;0.70;;;4.40;99.90;;;;;;6200269;23;20008;-75
2023/03/07 06:29:31;;;;;;;5.60;0.90;;;3.70;99.90;;;;;;6200540;23;20012;-75
2023/03/07 06:31:57;;;;;;;3.38;0.88;;;2.90;99.90;;;;;;6200934;23;20043;-75
2023/03/07 06:34:22;;;;;;;6.40;1.02;;;4.30;99.90;;;;;;6150814;23;20031;-76
2023/03/07 06:36:48;;;;;;;8.00;2.15;;;3.70;99.90;;;;;;6201295;23;20047;-78
2023/03/07 06:39:19;;;;;;;7.35;1.50;;;3.70;99.90;;;;;;6225715;23;20050;-77
2023/03/07 06:41:49;;;;;;;3.85;0.98;;;3.10;99.90;;;;;;6226452;23;20019;-77
2023/03/07 06:44:16;;;;;;;6.75;1.30;;;3.80;99.90;;;;;;6176480;23;20207;-77
2023/03/07 06:46:43;;;;;;;8.70;1.20;;;5.60;99.90;;;;;;6176554;23;20027;-77
2023/03/07 06:49:09;;;;;;;7.82;1.15;;;3.70;99.90;;;;;;6225483;23;20020;-76
2023/03/07 06:51:35;;;;;;;5.35;1.08;;;3.50;99.90;;;;;;6201558;23;20027;-75
2023/03/07 06:54:00;;;;;;;7.97;1.15;;;3.30;99.90;;;;;;6200608;23;20071;-77
2023/03/07 06:56:28;;;;;;;8.60;1.00;;;3.90;99.90;;;;;;6224924;23;20020;-76
2023/03/07 06:58:54;;;;;;;3.42;1.20;;;3.70;99.90;;;;;;6200794;23;20013;-75
2023/03/07 07:01:24;;;;;;;9.60;1.15;;;3.50;99.90;;;;;;6176254;23;20015;-78
2023/03/07 07:03:50;;;;;;;4.60;1.08;;;4.10;99.90;;;;;;6202995;23;20039;-77
2023/03/07 07:06:15;;;;;;;6.75;1.08;;;5.00;99.90;;;;;;6227349;23;20019;-77
2023/03/07 07:09:32;;;;;;;;;;;;;;;;;;;;;
2023/03/07 07:39:31;;;;;;;;;;;;;;;;;;;;;
2023/03/07 07:42:06;;;;;;;4.15;1.15;;;4.20;99.90;;;;;;5849614;24;20089;-76
2023/03/07 08:03:36;;;;;;;6.95;1.77;;;3.20;99.90;;;;;;5778462;24;20325;-76
2023/03/07 08:27:16;;;;;;;4.47;1.17;;;4.50;99.90;;;;;;5852377;24;20117;-76
2023/03/07 08:45:58;;;;;;;2.50;1.10;;;4.30;99.90;;;;;;5776908;24;20091;-80
2023/03/07 08:52:00;;;;;;;6.97;1.20;;;3.80;99.90;;;;;;5888971;24;20226;-76
2023/03/07 09:02:44;;;;;;;2.83;1.27;;;3.80;99.90;;;;;;5957841;24;20065;-75
2023/03/07 09:26:26;;;;;;;4.05;0.98;;;4.80;99.90;;;;;;6210551;22;1541737;-89
2023/03/07 09:29:07;;;;;;;5.22;1.10;;;4.60;99.90;;;;;;6204425;23;20020;-90
2023/03/07 09:31:36;;;;;;;2.53;0.90;;;4.90;99.90;;;;;;6225558;23;20095;-89
2023/03/07 09:34:08;;;;;;;4.65;1.30;;;4.90;99.90;;;;;;6202589;23;20026;-91
2023/03/07 09:36:40;;;;;;;4.53;0.90;;;4.80;99.90;;;;;;6203746;23;20046;-91
2023/03/07 09:39:13;;;;;;;8.27;1.60;;;4.70;99.90;;;;;;6206623;23;20012;-91
2023/03/07 09:41:56;;;;;;;5.40;1.00;;;5.00;99.90;;;;;;6228416;23;20086;-90
2023/03/07 09:44:34;;;;;;;;;;;4.50;99.90;;;;;;6228947;23;20020;-91
2023/03/07 09:47:17;;;;;;;5.10;1.20;;;4.50;99.90;;;;;;6227863;23;20286;-91
2023/03/07 09:50:03;;;;;;;7.68;1.30;;;4.90;99.90;;;;;;6231118;23;20020;-92
2023/03/07 09:52:42;;;;;;;8.45;1.60;;;4.90;99.90;;;;;;6230100;23;20024;-90
2023/03/07 09:55:21;;;;;;;4.82;1.38;;;4.80;99.90;;;;;;6203153;23;20012;-90
2023/03/07 09:58:08;;;;;;;6.18;1.42;;;3.50;99.90;;;;;;6227395;23;20007;-89
2023/03/07 10:01:00;;;;;;;6.43;1.67;;;4.90;99.90;;;;;;6248768;23;20012;-90
2023/03/07 10:03:51;;;;;;;6.07;1.60;;;4.60;99.90;;;;;;6227006;23;20023;-91
2023/03/07 10:06:30;;;;;;;3.67;1.48;;;5.00;99.90;;;;;;6238762;22;20020;-90
2023/03/07 10:08:58;;;;;;;4.10;2.00;;;5.00;99.90;;;;;;6228216;23;20019;-90
2023/03/07 10:12:01;;;;;;;5.03;1.17;;;3.40;99.90;;;;;;6228258;23;20094;-91
2023/03/07 10:14:53;;;;;;;4.05;1.30;;;5.10;99.90;;;;;;6231098;23;20019;-92
2023/03/07 10:17:26;;;;;;;5.20;1.05;;;5.10;99.90;;;;;;6240737;23;20030;-87
2023/03/07 10:20:00;;;;;;;6.28;2.10;;;5.20;99.90;;;;;;6244692;23;20012;-91
2023/03/07 10:23:07;;;;;;;4.72;2.00;;;5.30;99.90;;;;;;6241779;23;20000;-90
2023/03/07 10:26:08;;;;;;;5.93;1.60;;;5.20;99.90;;;;;;6232462;23;20238;-90
2023/03/07 10:28:49;;;;;;;3.58;1.00;;;5.60;99.90;;;;;;6236821;23;20030;-90
2023/03/07 10:31:39;;;;;;;4.18;1.00;;;5.60;99.90;;;;;;6238726;23;20015;-90
2023/03/07 10:34:24;;;;;;;6.70;1.17;;;5.20;99.90;;;;;;6236064;23;20008;-91
2023/03/07 10:37:17;;;;;;;6.93;1.17;;;4.80;99.90;;;;;;6236573;23;20012;-91
2023/03/07 10:39:52;;;;;;;7.85;1.40;;;5.10;99.90;;;;;;6231256;23;20012;-91
2023/03/07 10:42:42;;;;;;;4.18;1.00;;;5.20;99.90;;;;;;6233986;23;20040;-91
2023/03/07 10:45:39;;;;;;;5.95;1.25;;;5.00;99.90;;;;;;6164999;23;20016;-92
2023/03/07 10:48:34;;;;;;;5.00;1.20;;;5.00;99.90;;;;;;6256025;23;20020;-91
2023/03/07 10:51:44;;;;;;;7.57;1.27;;;4.90;99.90;;;;;;6231700;23;20012;-90
2023/03/07 10:54:30;;;;;;;6.63;1.20;;;5.00;99.90;;;;;;6233483;23;20012;-91
2023/03/07 10:57:16;;;;;;;5.82;1.20;;;5.10;99.90;;;;;;6232976;23;20423;-91
2023/03/07 10:59:55;;;;;;;5.53;1.45;;;6.20;99.90;;;;;;6235742;23;20012;-90
2023/03/07 11:03:11;;;;;;;3.58;1.02;;;5.20;99.90;;;;;;6211389;23;20012;-90
2023/03/07 11:05:47;;;;;;;5.95;1.33;;;5.60;99.90;;;;;;6229230;23;20388;-91
2023/03/07 11:08:47;;;;;;;3.53;1.08;;;5.70;99.90;;;;;;6229137;23;20071;-90
2023/03/07 11:11:28;;;;;;;3.80;1.40;;;5.70;99.90;;;;;;6225293;23;20095;-91
2023/03/07 11:14:06;;;;;;;6.70;1.17;;;5.80;99.90;;;;;;6227750;23;20008;-91
2023/03/07 11:16:54;;;;;;;4.15;1.08;;;5.40;99.90;;;;;;6244146;23;20019;-91
2023/03/07 11:20:09;;;;;;;2.72;1.20;;;5.70;99.90;;;;;;6223609;23;20096;-91
2023/03/07 11:22:36;;;;;;;6.93;2.55;;;5.90;99.90;;;;;;6097317;23;20051;-90
2023/03/07 11:25:31;;;;;;;4.10;1.10;;;5.80;99.90;;;;;;6219908;23;20040;-92
2023/03/07 11:28:01;;;;;;;6.78;1.25;;;6.30;99.90;;;;;;6218732;23;20056;-90
2023/03/07 11:31:14;;;;;;;6.47;1.80;;;6.50;99.90;;;;;;6218008;23;20092;-93
2023/03/07 11:34:22;;;;;;;2.92;1.17;;;7.00;99.90;;;;;;6205516;23;20016;-91
2023/03/07 11:40:52;;;;;;;7.25;1.08;;;6.20;99.90;;;;;;6245020;23;20019;-90
2023/03/07 11:44:06;;;;;;;5.78;1.30;;;5.20;99.90;;;;;;6225667;23;20046;-89
2023/03/07 11:46:34;;;;;;;3.15;1.02;;;4.70;99.90;;;;;;6072595;23;20176;-90
2023/03/07 11:49:09;;;;;;;6.32;1.40;;;4.40;99.90;;;;;;6072591;23;20072;-89
2023/03/07 11:51:59;;;;;;;2.55;1.30;;;3.80;99.90;;;;;;6158827;23;20027;-90
2023/03/07 11:55:03;;;;;;;4.60;1.13;;;3.90;99.90;;;;;;6217970;23;20012;-89
2023/03/07 11:58:10;;;;;;;4.15;1.13;;;2.30;99.90;;;;;;6136205;23;20019;-89
2023/03/07 12:00:54;;;;;;;5.88;1.90;;;3.70;99.90;;;;;;6217320;23;20102;-88
2023/03/07 12:04:01;;;;;;;5.72;1.60;;;3.90;99.90;;;;;;6215627;23;20482;-88
2023/03/07 12:06:51;;;;;;;4.60;1.15;;;4.00;99.90;;;;;;6190557;23;20020;-88
2023/03/07 12:09:38;;;;;;;7.10;1.00;;;4.00;99.90;;;;;;6217356;23;20012;-87
2023/03/07 12:12:43;;;;;;;6.10;1.38;;;4.70;99.90;;;;;;6217627;23;20020;-88
2023/03/07 12:15:21;;;;;;;5.57;1.15;;;5.10;99.90;;;;;;6217881;23;20016;-89
2023/03/07 12:18:05;;;;;;;5.90;0.95;;;5.20;99.90;;;;;;6217705;23;20425;-88
2023/03/07 12:20:39;;;;;;;7.15;1.10;;;5.60;99.90;;;;;;6217154;23;20345;-90
2023/03/07 12:23:32;;;;;;;5.55;1.20;;;5.80;99.90;;;;;;6217288;23;20019;-89
2023/03/07 12:26:24;;;;;;;6.05;1.30;;;5.80;99.90;;;;;;6217816;23;20016;-90
2023/03/07 12:29:25;;;;;;;5.05;1.33;;;6.40;99.90;;;;;;6198464;23;20039;-89
2023/03/07 12:31:55;;;;;;;2.53;0.80;;;5.20;99.90;;;;;;6217801;23;20022;-88
2023/03/07 12:34:45;;;;;;;4.13;1.02;;;6.70;99.90;;;;;;6216486;23;20036;-89
2023/03/07 12:37:35;;;;;;;5.20;1.05;;;5.50;99.90;;;;;;6219715;23;20441;-89
2023/03/07 12:40:55;;;;;;;4.95;1.23;;;6.80;99.90;;;;;;6219427;23;20019;-89
2023/03/07 12:43:38;;;;;;;4.65;1.17;;;8.20;99.90;;;;;;6155417;23;20016;-89
2023/03/07 12:46:23;;;;;;;3.75;0.93;;;8.80;99.90;;;;;;6219698;23;20497;-88
2023/03/07 12:49:03;;;;;;;2.92;0.80;;;7.10;99.90;;;;;;6219524;23;20080;-88
2023/03/07 12:51:39;;;;;;;4.95;1.20;;;7.10;99.90;;;;;;6220297;23;20447;-88
2023/03/07 12:54:45;;;;;;;3.63;1.15;;;7.20;99.90;;;;;;6220142;23;20012;-88
2023/03/07 12:57:18;;;;;;;;;;;7.10;99.90;;;;;;6109282;22;20018;-90
2023/03/07 12:59:49;;;;;;;1.67;0.60;;;7.20;99.90;;;;;;6229638;23;19912;-88
2023/03/07 13:02:38;;;;;;;1.58;0.73;;;7.00;99.90;;;;;;6205304;23;20066;-88
2023/03/07 13:05:05;;;;;;;3.55;0.90;;;5.20;99.90;;;;;;6210088;23;20026;-87
2023/03/07 13:07:36;;;;;;;5.00;0.70;;;6.90;99.90;;;;;;6180858;23;20016;-89
2023/03/07 13:10:06;;;;;;;3.50;0.95;;;6.80;99.90;;;;;;6238499;23;20060;-87
2023/03/07 13:12:34;;;;;;;1.65;0.52;;;6.80;99.90;;;;;;6240912;23;20020;-88
2023/03/07 13:15:24;;;;;;;2.83;1.33;;;6.40;99.90;;;;;;6241809;23;20423;-88
2023/03/07 13:17:59;;;;;;;4.57;0.70;;;6.20;99.90;;;;;;6164300;23;20019;-89
2023/03/07 13:20:39;;;;;;;2.90;1.05;;;6.20;99.90;;;;;;6228275;23;20008;-89
2023/03/07 13:23:30;;;;;;;2.55;0.68;;;5.90;99.90;;;;;;6223771;23;20513;-91
2023/03/07 13:26:10;;;;;;;4.93;0.60;;;6.00;99.90;;;;;;6223159;23;20012;-86
2023/03/07 13:28:42;;;;;;;3.03;0.82;;;5.70;99.90;;;;;;6196278;23;20020;-90
2023/03/07 13:31:27;;;;;;;4.63;0.80;;;5.90;99.90;;;;;;6196492;23;20506;-89
2023/03/07 13:33:53;;;;;;;4.13;1.00;;;5.60;99.90;;;;;;6196253;23;20016;-87
2023/03/07 13:36:39;;;;;;;2.63;0.90;;;5.90;99.90;;;;;;6193200;23;20016;-89
2023/03/07 13:39:34;;;;;;;4.80;0.90;;;5.40;99.90;;;;;;6196308;23;20009;-89
2023/03/07 13:42:00;;;;;;;6.35;1.10;;;3.50;99.90;;;;;;6195574;23;20016;-90
2023/03/07 13:44:47;;;;;;;2.63;0.80;;;3.70;99.90;;;;;;6196781;23;20091;-89
2023/03/07 13:47:44;;;;;;;1.52;0.52;;;3.30;99.90;;;;;;6171839;23;20015;-88
2023/03/07 13:50:33;;;;;;;3.15;0.60;;;5.10;99.90;;;;;;6194782;23;20019;-91
2023/03/07 13:53:10;;;;;;;2.88;0.80;;;4.80;99.90;;;;;;6194790;23;20341;-89
2023/03/07 13:56:19;;;;;;;3.80;0.70;;;4.50;99.90;;;;;;6193773;23;20093;-92
2023/03/07 13:59:27;;;;;;;1.92;0.88;;;4.60;99.90;;;;;;6194655;23;20434;-89
2023/03/07 14:02:00;;;;;;;3.55;1.23;;;4.60;99.90;;;;;;6196483;23;20459;-89
2023/03/07 14:04:53;;;;;;;3.50;0.85;;;4.60;99.90;;;;;;6195516;23;20018;-89
2023/03/07 14:07:35;;;;;;;0.98;0.77;;;4.90;99.90;;;;;;6196554;23;20345;-88
2023/03/07 14:10:11;;;;;;;5.18;1.42;;;2.80;99.90;;;;;;6196783;23;20043;-89
2023/03/07 14:13:04;;;;;;;3.03;0.70;;;4.10;99.90;;;;;;6196539;23;20095;-88
2023/03/07 14:15:40;;;;;;;2.10;0.60;;;4.60;99.90;;;;;;6198364;23;20020;-89
2023/03/07 14:18:22;;;;;;;3.80;0.85;;;4.40;99.90;;;;;;6197594;23;20008;-89
2023/03/07 14:21:00;;;;;;;;;;;4.50;99.90;;;;;;6198032;23;20497;-90
2023/03/07 14:23:49;;;;;;;2.00;0.70;;;5.20;99.90;;;;;;6196315;23;19922;-90
2023/03/07 14:26:48;;;;;;;4.63;0.80;;;5.60;99.90;;;;;;6195825;23;20052;-89
2023/03/07 14:29:18;;;;;;;3.33;0.93;;;5.40;99.90;;;;;;6196454;23;20020;-91
2023/03/07 14:31:56;;;;;;;1.58;0.55;;;4.10;99.90;;;;;;6196582;23;20020;-91
2023/03/07 14:34:31;;;;;;;;;;;5.30;99.90;;;;;;6196251;23;20434;-90
2023/03/07 14:37:00;;;;;;;3.58;0.77;;;5.20;99.90;;;;;;6196930;23;19912;-91
2023/03/07 14:39:45;;;;;;;3.65;0.80;;;5.40;99.90;;;;;;6196510;23;20012;-90
2023/03/07 14:42:39;;;;;;;3.80;0.82;;;5.70;99.90;;;;;;6197516;23;20019;-88
2023/03/07 14:45:26;;;;;;;2.30;0.60;;;5.40;99.90;;;;;;6222020;23;20019;-89
2023/03/07 14:48:10;;;;;;;2.95;0.88;;;4.80;99.90;;;;;;6193641;23;20012;-91
2023/03/07 14:50:43;;;;;;;0.90;0.47;;;4.70;99.90;;;;;;6194817;23;20013;-91
2023/03/07 14:53:28;;;;;;;1.92;0.38;;;4.50;99.90;;;;;;6194710;23;20582;-89
2023/03/07 14:55:55;;;;;;;7.97;0.90;;;4.50;99.90;;;;;;6194594;23;20018;-89
2023/03/07 14:58:33;;;;;;;3.95;0.95;;;4.80;99.90;;;;;;6195689;23;20012;-90
2023/03/07 15:01:01;;;;;;;3.85;1.35;;;3.90;99.90;;;;;;6194292;23;20105;-90
2023/03/07 15:03:28;;;;;;;3.55;0.60;;;4.40;99.90;;;;;;6170136;23;20016;-90
2023/03/07 15:05:56;;;;;;;3.72;0.68;;;4.30;99.90;;;;;;6194130;23;20097;-91
2023/03/07 15:08:28;;;;;;;3.78;0.68;;;4.60;99.90;;;;;;6169744;23;20012;-90
2023/03/07 15:11:20;;;;;;;2.65;0.70;;;4.20;99.90;;;;;;6193573;23;20397;-90
2023/03/07 15:13:55;;;;;;;4.10;1.05;;;4.60;99.90;;;;;;6193963;23;20066;-89
2023/03/07 15:16:33;;;;;;;1.17;0.50;;;4.20;99.90;;;;;;6195014;23;20012;-90
2023/03/07 15:19:21;;;;;;;2.38;0.73;;;4.40;99.90;;;;;;6194237;23;20012;-90
2023/03/07 15:21:54;;;;;;;3.03;0.60;;;4.30;99.90;;;;;;6193664;23;20039;-89
2023/03/07 15:24:37;;;;;;;4.65;0.70;;;4.00;99.90;;;;;;6194340;23;20151;-91
2023/03/07 15:27:08;;;;;;;0.75;0.40;;;4.00;99.90;;;;;;6201171;23;20023;-93
2023/03/07 15:29:47;;;;;;;1.13;0.52;;;4.50;99.90;;;;;;6195690;23;20039;-91
2023/03/07 15:32:37;;;;;;;2.17;0.93;;;3.40;99.90;;;;;;6219385;23;20078;-90
2023/03/07 15:35:11;;;;;;;4.07;0.75;;;3.60;99.90;;;;;;6221959;23;20107;-90
2023/03/07 15:37:57;;;;;;;4.95;0.50;;;3.30;99.90;;;;;;6222223;23;20012;-90